Date,TemperatureHighF,TemperatureAvgF,TemperatureLowF,DewpointHighF,DewpointAvgF,DewpointLowF,HumidityHigh,HumidityAvg,HumidityLow,PressureMaxIn,PressureMinIn,WindSpeedMaxMPH,WindSpeedAvgMPH,GustSpeedMaxMPH,PrecipitationSumIn
2013-3-1,32.5,28.1,23.5,24.4,21.7,18.0,80,77,70,29.50,29.37,12,5,14,0.00
2013-3-2,37.3,28.1,22.8,24.2,19.4,16.6,82,70,54,30.11,29.41,7,2,10,0.00
2013-3-3,44.4,35.6,25.3,28.9,24.9,19.5,79,66,53,30.10,29.74,14,4,14,0.00
2013-3-4,50.1,41.4,35.1,34.6,31.0,28.3,91,67,53,29.94,29.65,16,4,16,0.01
2013-3-5,37.4,32.6,26.7,32.9,22.4,17.0,93,67,53,30.36,29.94,23,10,23,0.03
2013-3-6,38.6,30.4,22.5,23.6,20.3,17.0,80,66,51,30.44,30.29,13,3,13,0.00
2013-3-7,49.2,36.9,25.2,32.1,26.1,19.8,81,66,48,30.30,30.12,10,3,10,0.00
2013-3-8,57.9,47.9,37.4,41.4,35.7,28.9,74,63,52,30.20,29.94,8,3,21,0.00
2013-3-9,58.7,52.6,46.3,55.5,46.8,38.8,98,81,61,29.95,29.55,10,3,18,0.56
2013-3-10,55.0,41.3,27.8,53.0,39.6,24.2,98,94,86,29.88,29.50,14,5,25,0.01
2013-3-11,38.3,30.1,25.6,25.0,23.2,19.5,89,76,49,30.03,29.85,10,3,20,0.01
2013-3-12,48.7,36.9,28.3,30.0,24.7,19.8,88,63,33,30.33,30.01,15,4,25,0.00
2013-3-13,45.9,34.4,23.8,26.7,22.0,19.3,84,63,36,30.48,30.31,7,2,11,0.00
2013-3-14,71.8,50.6,35.1,41.9,33.0,23.3,81,53,31,30.31,30.02,12,3,18,0.00
2013-3-15,82.3,59.1,37.6,50.1,42.9,35.1,92,60,27,30.06,29.61,12,3,21,0.00
2013-3-16,59.7,44.2,37.9,45.8,35.2,28.0,85,71,56,30.04,29.64,12,5,18,0.00
2013-3-17,37.9,34.5,33.0,33.1,30.0,26.5,94,84,68,30.04,29.74,10,3,18,0.08
2013-3-18,54.1,42.4,33.0,38.1,29.2,18.9,97,65,28,30.06,29.74,14,4,22,0.02
2013-3-19,39.3,33.3,27.4,36.8,27.2,17.9,97,79,48,30.25,30.03,5,0,7,0.09
2013-3-20,39.2,31.7,24.6,33.3,16.4,8.4,97,56,29,30.41,30.13,15,4,20,0.00
2013-3-21,29.6,27.5,23.4,28.1,19.4,10.9,94,73,50,30.13,29.91,6,2,12,0.01
2013-3-22,34.3,31.8,29.6,32.0,29.6,27.5,95,91,84,30.01,29.94,4,1,8,0.03
2013-3-23,39.2,34.3,32.8,32.8,30.9,28.0,97,88,66,30.02,29.84,9,2,16,0.05
2013-3-24,33.0,29.1,22.6,31.7,26.4,18.1,97,90,80,30.09,29.81,14,6,23,0.10
2013-3-25,33.3,27.7,20.8,27.8,23.2,17.1,90,84,72,30.35,30.07,13,5,21,0.08
2013-3-26,36.4,28.3,18.5,24.6,21.1,16.3,93,76,54,30.43,30.31,8,2,12,0.32
2013-3-27,50.2,38.1,23.9,34.5,27.9,21.1,92,68,49,30.32,30.19,8,2,13,0.00
2013-3-28,64.9,51.4,36.3,42.6,37.0,31.3,82,60,39,30.21,30.09,7,1,9,0.00
2013-3-29,69.7,56.2,42.5,46.3,40.5,35.0,87,59,29,30.17,30.03,6,2,13,0.00
2013-3-30,68.6,57.6,51.0,57.2,50.8,45.4,97,79,60,30.04,29.80,9,2,14,0.08
2013-3-31,66.3,54.6,42.2,53.5,41.8,30.1,97,66,33,29.94,29.87,13,3,21,0.00